createdAt,value
2023-04-22T00:00:57.339Z,79.06
2023-04-22T00:04:06.103Z,79.03
2023-04-22T00:07:15.826Z,79.08
2023-04-22T00:10:24.160Z,79.01
2023-04-22T00:13:32.609Z,79.17
2023-04-22T00:16:42.643Z,79.31
2023-04-22T00:19:51.091Z,79.82
2023-04-22T00:22:59.713Z,79.31
2023-04-22T00:26:07.826Z,79.43
2023-04-22T00:29:16.240Z,79.50
2023-04-22T00:32:26.535Z,79.45
2023-04-22T00:35:34.717Z,79.64
2023-04-22T00:38:49.552Z,79.33
2023-04-22T00:41:57.929Z,79.43
2023-04-22T00:45:12.362Z,80.14
2023-04-22T00:48:22.893Z,79.76
2023-04-22T00:51:33.507Z,79.81
2023-04-22T00:54:41.633Z,80.13
2023-04-22T00:57:52.924Z,80.47
2023-04-22T01:01:01.589Z,80.50
2023-04-22T01:04:12.650Z,79.85
2023-04-22T01:07:21.747Z,80.17
2023-04-22T01:10:30.426Z,80.29
2023-04-22T01:13:38.809Z,80.35
2023-04-22T01:16:48.280Z,80.37
2023-04-22T01:19:59.461Z,80.60
2023-04-22T01:23:16.336Z,80.25
2023-04-22T01:26:24.671Z,80.54
2023-04-22T01:29:33.533Z,80.99
2023-04-22T01:32:43.351Z,80.93
2023-04-22T01:35:51.758Z,80.63
2023-04-22T01:39:01.934Z,80.49
2023-04-22T01:42:11.819Z,80.45
2023-04-22T01:45:22.169Z,80.46
2023-04-22T01:48:31.732Z,80.57
2023-04-22T01:51:40.333Z,80.28
2023-04-22T01:54:50.322Z,80.16
2023-04-22T01:57:58.486Z,80.03
2023-04-22T02:01:07.645Z,80.03
2023-04-22T02:04:18.045Z,80.22
2023-04-22T02:07:26.576Z,80.86
2023-04-22T02:10:36.486Z,80.25
2023-04-22T02:13:44.847Z,80.31
2023-04-22T02:16:52.978Z,80.74
2023-04-22T02:20:01.379Z,80.46
2023-04-22T02:23:12.600Z,80.60
2023-04-22T02:26:22.066Z,80.80
2023-04-22T02:29:32.107Z,81.09
2023-04-22T02:32:40.414Z,81.79
2023-04-22T02:35:48.622Z,81.24
2023-04-22T02:39:00.160Z,81.84
2023-04-22T02:42:09.833Z,81.34
2023-04-22T02:45:18.713Z,81.96
2023-04-22T02:48:27.107Z,82.24
2023-04-22T02:51:35.513Z,81.75
2023-04-22T02:54:43.748Z,82.15
2023-04-22T02:57:53.242Z,82.06
2023-04-22T03:01:01.664Z,82.37
2023-04-22T03:04:10.003Z,82.28
2023-04-22T03:07:18.227Z,82.46
2023-04-22T03:10:26.413Z,82.28
2023-04-22T03:13:36.149Z,82.58
2023-04-22T03:16:44.307Z,82.00
2023-04-22T03:19:52.560Z,82.18
2023-04-22T03:23:02.461Z,82.42
2023-04-22T03:26:12.069Z,81.74
2023-04-22T03:29:22.508Z,82.21
2023-04-22T03:32:30.644Z,82.99
2023-04-22T03:35:56.370Z,83.14
2023-04-22T03:39:06.077Z,82.86
2023-04-22T03:42:16.256Z,83.29
2023-04-22T03:45:28.084Z,82.84
2023-04-22T03:48:50.732Z,83.10
2023-04-22T03:52:07.503Z,83.09
2023-04-22T03:55:18.883Z,82.60
2023-04-22T03:58:28.282Z,83.24
2023-04-22T04:01:40.705Z,83.00
2023-04-22T04:04:51.201Z,83.05
2023-04-22T04:08:00.745Z,83.33
2023-04-22T04:11:10.879Z,83.06
2023-04-22T04:14:19.977Z,82.39
2023-04-22T04:17:31.511Z,82.56
2023-04-22T04:20:41.753Z,82.57
2023-04-22T04:23:50.538Z,82.11
2023-04-22T04:27:03.161Z,82.00
2023-04-22T04:30:19.777Z,82.01
2023-04-22T04:33:37.167Z,81.79
2023-04-22T04:36:46.602Z,80.78
2023-04-22T04:40:03.527Z,81.14
2023-04-22T04:43:25.903Z,81.46
2023-04-22T04:47:01.093Z,79.34
2023-04-22T04:50:12.678Z,79.88
2023-04-22T04:53:23.914Z,79.91
2023-04-22T04:56:34.946Z,79.71
2023-04-22T04:59:44.496Z,79.53
2023-04-22T05:02:54.198Z,78.31
2023-04-22T05:06:06.008Z,77.34
2023-04-22T05:09:16.838Z,77.84
2023-04-22T05:12:28.061Z,78.42
2023-04-22T05:15:37.482Z,76.15
2023-04-22T05:18:45.673Z,74.55
2023-04-22T05:21:58.009Z,73.07
2023-04-22T05:25:07.589Z,72.99
2023-04-22T05:28:16.362Z,73.01
2023-04-22T05:31:31.774Z,73.05
2023-04-22T05:34:40.157Z,72.71
2023-04-22T05:37:49.699Z,71.64
2023-04-22T05:40:58.355Z,70.77
2023-04-22T05:44:07.005Z,69.68
2023-04-22T05:47:15.991Z,68.25
2023-04-22T05:50:24.621Z,67.91
2023-04-22T05:53:43.584Z,66.77
2023-04-22T05:56:52.079Z,66.66
2023-04-22T06:00:01.150Z,65.87
2023-04-22T06:03:09.913Z,65.17
2023-04-22T06:06:18.300Z,60.99
2023-04-22T06:09:29.812Z,54.52
2023-04-22T06:12:37.941Z,49.73
2023-04-22T06:15:46.054Z,44.73
2023-04-22T06:18:54.173Z,41.61
2023-04-22T06:22:04.171Z,40.06
2023-04-22T06:25:13.703Z,38.92
2023-04-22T06:28:21.762Z,37.54
2023-04-22T06:31:32.414Z,36.00
2023-04-22T06:34:41.224Z,35.77
2023-04-22T06:37:49.610Z,34.75
2023-04-22T06:40:59.776Z,33.92
2023-04-22T06:44:12.529Z,34.31
2023-04-22T06:47:41.962Z,33.93
2023-04-22T06:50:54.057Z,33.14
2023-04-22T06:54:02.895Z,33.62
2023-04-22T06:57:12.492Z,30.97
2023-04-22T07:00:20.689Z,30.62
2023-04-22T07:03:29.036Z,31.03
2023-04-22T07:06:48.050Z,31.00
2023-04-22T07:09:56.447Z,29.90
2023-04-22T07:13:09.695Z,29.88
2023-04-22T07:16:17.987Z,29.60
2023-04-22T07:19:26.509Z,28.77
2023-04-22T07:22:34.637Z,30.35
2023-04-22T07:25:42.964Z,31.39
2023-04-22T07:28:52.571Z,31.18
2023-04-22T07:32:00.785Z,31.23
2023-04-22T07:35:09.899Z,30.78
2023-04-22T07:38:18.243Z,29.62
2023-04-22T07:41:26.447Z,33.54
2023-04-22T07:44:38.205Z,29.78
2023-04-22T07:47:47.595Z,30.85
2023-04-22T07:50:55.656Z,31.34
2023-04-22T07:54:03.896Z,30.39
2023-04-22T07:57:11.978Z,31.18
2023-04-22T08:00:21.805Z,31.18
2023-04-22T08:03:30.064Z,30.36
2023-04-22T08:06:38.368Z,29.99
2023-04-22T08:09:46.674Z,29.58
2023-04-22T08:12:55.492Z,29.43
2023-04-22T08:16:07.450Z,29.41
2023-04-22T08:19:15.669Z,28.29
2023-04-22T08:22:24.168Z,29.54
2023-04-22T08:25:32.946Z,29.27
2023-04-22T08:28:42.070Z,31.56
2023-04-22T08:31:52.277Z,31.13
2023-04-22T08:35:04.872Z,29.71
2023-04-22T08:38:14.101Z,30.61
2023-04-22T08:41:24.544Z,32.52
2023-04-22T08:44:33.012Z,31.61
2023-04-22T08:47:44.122Z,35.44
2023-04-22T08:50:54.642Z,34.34
2023-04-22T08:54:05.573Z,32.31
2023-04-22T08:57:16.468Z,32.81
2023-04-22T09:00:24.990Z,32.63
2023-04-22T09:03:36.415Z,31.22
2023-04-22T09:06:45.089Z,35.54
2023-04-22T09:09:55.672Z,32.48
2023-04-22T09:13:05.610Z,33.98
2023-04-22T09:16:13.785Z,34.63
2023-04-22T09:19:27.499Z,34.62
2023-04-22T09:22:41.141Z,35.79
2023-04-22T09:25:49.395Z,36.18
2023-04-22T09:29:00.686Z,34.32
2023-04-22T09:32:12.662Z,34.95
2023-04-22T09:35:29.110Z,36.39
2023-04-22T09:38:37.187Z,37.53
2023-04-22T09:41:45.261Z,34.29
2023-04-22T09:44:53.950Z,35.88
2023-04-22T09:48:07.918Z,36.18
2023-04-22T09:51:19.258Z,34.65
2023-04-22T09:54:27.585Z,35.30
2023-04-22T09:57:40.539Z,35.32
2023-04-22T10:00:54.598Z,31.51
2023-04-22T10:04:03.102Z,33.63
2023-04-22T10:07:14.310Z,32.46
2023-04-22T10:10:23.447Z,32.34
2023-04-22T10:13:31.483Z,31.56
2023-04-22T10:16:41.533Z,32.42
2023-04-22T10:19:51.470Z,33.49
2023-04-22T10:23:04.675Z,35.02
2023-04-22T10:26:12.801Z,32.54
2023-04-22T10:29:22.898Z,33.05
2023-04-22T10:32:31.849Z,33.68
2023-04-22T10:35:39.939Z,35.69
2023-04-22T10:39:18.780Z,33.80
2023-04-22T10:42:30.218Z,32.17
2023-04-22T10:45:38.585Z,33.63
2023-04-22T10:48:49.960Z,31.77
2023-04-22T10:52:00.140Z,32.68
2023-04-22T10:55:10.692Z,32.08
2023-04-22T10:58:21.835Z,31.21
2023-04-22T11:01:30.019Z,32.13
2023-04-22T11:04:39.423Z,31.67
2023-04-22T11:07:50.526Z,35.31
2023-04-22T11:11:13.593Z,32.76
2023-04-22T11:14:22.965Z,33.79
2023-04-22T11:17:32.581Z,35.44
2023-04-22T11:20:41.623Z,31.74
2023-04-22T11:23:53.390Z,30.79
2023-04-22T11:27:02.994Z,32.92
2023-04-22T11:30:14.709Z,35.92
2023-04-22T11:33:22.984Z,32.25
2023-04-22T11:36:31.549Z,31.73
2023-04-22T11:39:50.250Z,31.59
2023-04-22T11:43:10.763Z,30.57
2023-04-22T11:46:31.415Z,30.36
2023-04-22T11:49:40.272Z,31.16
2023-04-22T11:52:52.262Z,30.44
2023-04-22T11:56:04.298Z,29.29
2023-04-22T11:59:14.571Z,29.97
2023-04-22T12:02:27.428Z,31.03
2023-04-22T12:05:42.074Z,31.40
2023-04-22T12:08:51.996Z,30.50
2023-04-22T12:12:01.681Z,31.19
2023-04-22T12:15:16.160Z,30.99
2023-04-22T12:18:38.225Z,29.96
2023-04-22T12:21:47.136Z,30.07
2023-04-22T12:24:59.358Z,30.01
2023-04-22T12:28:08.951Z,29.87
2023-04-22T12:31:19.947Z,31.70
2023-04-22T12:34:28.599Z,29.86
2023-04-22T12:37:37.481Z,28.34
2023-04-22T12:40:46.019Z,29.54
2023-04-22T12:43:55.768Z,30.31
2023-04-22T12:47:05.919Z,29.83
2023-04-22T12:50:15.121Z,28.52
2023-04-22T12:53:23.474Z,28.89
2023-04-22T12:56:32.731Z,31.15
2023-04-22T12:59:42.738Z,28.42
2023-04-22T13:02:53.305Z,30.42
2023-04-22T13:06:03.014Z,30.41
2023-04-22T13:09:11.804Z,29.66
2023-04-22T13:12:19.989Z,28.69
2023-04-22T13:15:30.287Z,30.17
2023-04-22T13:18:40.959Z,29.69
2023-04-22T13:21:49.247Z,28.28
2023-04-22T13:24:57.886Z,28.87
2023-04-22T13:28:06.146Z,30.01
2023-04-22T13:31:14.228Z,30.10
2023-04-22T13:34:23.822Z,29.90
2023-04-22T13:37:32.234Z,29.71
2023-04-22T13:40:40.488Z,31.53
2023-04-22T13:43:54.139Z,30.20
2023-04-22T13:47:02.903Z,31.11
2023-04-22T13:50:13.382Z,30.28
2023-04-22T13:53:21.917Z,30.24
2023-04-22T13:56:31.017Z,30.01
2023-04-22T13:59:39.552Z,30.59
2023-04-22T14:02:48.120Z,30.66
2023-04-22T14:05:57.966Z,29.73
2023-04-22T14:09:06.991Z,30.13
2023-04-22T14:12:15.299Z,29.43
2023-04-22T14:15:23.611Z,28.87
2023-04-22T14:18:36.161Z,28.96
2023-04-22T14:21:45.685Z,29.17
2023-04-22T14:24:54.112Z,29.15
2023-04-22T14:28:04.188Z,31.75
2023-04-22T14:31:15.208Z,29.83
2023-04-22T14:34:23.527Z,30.07
2023-04-22T14:37:35.703Z,30.04
2023-04-22T14:40:43.924Z,29.61
2023-04-22T14:43:52.124Z,30.60
2023-04-22T14:47:02.543Z,30.26
2023-04-22T14:50:11.456Z,29.28
2023-04-22T14:53:21.799Z,29.64
2023-04-22T14:56:30.700Z,29.39
2023-04-22T14:59:39.242Z,29.04
2023-04-22T15:02:48.190Z,29.73
2023-04-22T15:05:58.020Z,29.71
2023-04-22T15:09:12.494Z,30.00
2023-04-22T15:12:21.172Z,29.58
2023-04-22T15:15:29.699Z,29.93
2023-04-22T15:18:38.017Z,29.21
2023-04-22T15:21:46.771Z,29.06
2023-04-22T15:24:56.362Z,30.40
2023-04-22T15:28:04.888Z,28.22
2023-04-22T15:31:14.017Z,28.59
2023-04-22T15:34:22.613Z,30.04
2023-04-22T15:37:30.798Z,29.80
2023-04-22T15:40:40.832Z,29.23
2023-04-22T15:43:51.752Z,30.03
2023-04-22T15:47:00.563Z,30.10
2023-04-22T15:50:11.003Z,30.31
2023-04-22T15:53:19.553Z,30.04
2023-04-22T15:56:29.993Z,30.73
2023-04-22T15:59:38.392Z,30.58
2023-04-22T16:02:54.790Z,30.83
2023-04-22T16:06:03.693Z,30.78
2023-04-22T16:09:12.000Z,30.63
2023-04-22T16:12:21.542Z,30.47
2023-04-22T16:15:30.034Z,31.31
2023-04-22T16:18:42.843Z,32.08
2023-04-22T16:21:52.457Z,30.94
2023-04-22T16:25:00.856Z,31.17
2023-04-22T16:28:11.366Z,31.57
2023-04-22T16:31:22.887Z,31.44
2023-04-22T16:34:31.611Z,31.03
2023-04-22T16:37:40.050Z,31.88
2023-04-22T16:40:48.469Z,32.52
2023-04-22T16:43:58.504Z,32.39
2023-04-22T16:47:07.996Z,32.45
2023-04-22T16:50:17.161Z,32.57
2023-04-22T16:53:25.280Z,33.17
2023-04-22T16:56:33.426Z,33.00
2023-04-22T16:59:43.029Z,33.40
2023-04-22T17:02:51.595Z,34.18
2023-04-22T17:06:00.050Z,34.11
2023-04-22T17:09:10.029Z,34.44
2023-04-22T17:12:19.230Z,34.96
2023-04-22T17:15:29.101Z,34.98
2023-04-22T17:18:37.815Z,35.30
2023-04-22T17:21:46.613Z,35.43
2023-04-22T17:24:56.652Z,35.59
2023-04-22T17:28:05.042Z,35.65
2023-04-22T17:31:14.842Z,35.86
2023-04-22T17:34:23.041Z,36.27
2023-04-22T17:37:31.582Z,36.57
2023-04-22T17:40:40.227Z,36.74
2023-04-22T17:43:48.615Z,38.59
2023-04-22T17:46:58.188Z,38.57
2023-04-22T17:50:08.002Z,40.27
2023-04-22T17:53:16.229Z,42.85
2023-04-22T17:56:24.879Z,42.31
2023-04-22T17:59:33.250Z,43.50
2023-04-22T18:02:43.497Z,44.44
2023-04-22T18:05:51.966Z,44.29
2023-04-22T18:09:00.146Z,46.08
2023-04-22T18:12:08.377Z,46.52
2023-04-22T18:15:16.976Z,47.67
2023-04-22T18:18:26.523Z,48.48
2023-04-22T18:21:35.190Z,48.81
2023-04-22T18:24:44.770Z,48.13
2023-04-22T18:27:55.133Z,48.85
2023-04-22T18:31:04.205Z,49.82
2023-04-22T18:34:15.735Z,48.67
2023-04-22T18:37:24.702Z,47.88
2023-04-22T18:40:33.338Z,49.98
2023-04-22T18:43:42.078Z,50.97
2023-04-22T18:46:50.466Z,51.78
2023-04-22T18:50:00.390Z,52.38
2023-04-22T18:53:09.010Z,53.28
2023-04-22T18:56:17.153Z,53.82
2023-04-22T18:59:25.755Z,54.20
2023-04-22T19:02:36.504Z,55.00
2023-04-22T19:05:48.120Z,55.14
2023-04-22T19:08:57.057Z,56.50
2023-04-22T19:12:06.496Z,55.94
2023-04-22T19:15:15.151Z,56.33
2023-04-22T19:18:23.327Z,55.69
2023-04-22T19:21:33.389Z,54.58
2023-04-22T19:24:41.604Z,54.72
2023-04-22T19:27:49.972Z,60.70
2023-04-22T19:31:00.034Z,60.63
2023-04-22T19:34:08.221Z,61.69
2023-04-22T19:37:18.497Z,62.70
2023-04-22T19:40:26.688Z,60.85
2023-04-22T19:43:36.328Z,59.32
2023-04-22T19:46:45.409Z,58.52
2023-04-22T19:49:54.612Z,61.38
2023-04-22T19:53:06.305Z,61.22
2023-04-22T19:56:15.706Z,61.99
2023-04-22T19:59:24.554Z,62.32
2023-04-22T20:02:33.656Z,59.13
2023-04-22T20:05:44.216Z,57.63
2023-04-22T20:08:59.729Z,57.40
2023-04-22T20:12:09.354Z,55.37
2023-04-22T20:15:18.362Z,54.65
2023-04-22T20:18:27.004Z,51.59
2023-04-22T20:21:39.753Z,51.58
2023-04-22T20:25:03.609Z,50.78
2023-04-22T20:28:12.556Z,51.55
2023-04-22T20:31:23.372Z,51.08
2023-04-22T20:34:33.332Z,52.09
2023-04-22T20:37:42.664Z,51.36
2023-04-22T20:40:53.994Z,52.67
2023-04-22T20:44:02.136Z,51.05
2023-04-22T20:47:10.925Z,51.65
2023-04-22T20:50:20.676Z,51.44
2023-04-22T20:53:29.604Z,53.10
2023-04-22T20:56:40.510Z,52.74
2023-04-22T20:59:48.663Z,53.79
2023-04-22T21:02:57.604Z,53.38
2023-04-22T21:06:08.609Z,53.65
2023-04-22T21:09:18.338Z,53.63
2023-04-22T21:12:28.806Z,54.64
2023-04-22T21:15:39.887Z,53.62
2023-04-22T21:18:55.920Z,53.82
2023-04-22T21:22:07.480Z,54.47
2023-04-22T21:25:23.203Z,55.23
2023-04-22T21:28:34.163Z,55.83
2023-04-22T21:31:42.558Z,56.03
2023-04-22T21:34:51.484Z,56.58
2023-04-22T21:38:01.812Z,56.16
2023-04-22T21:41:11.503Z,57.42
2023-04-22T21:44:21.375Z,57.06
2023-04-22T21:47:29.694Z,57.86
2023-04-22T21:50:38.996Z,57.63
2023-04-22T21:53:47.734Z,57.84
2023-04-22T21:56:56.976Z,58.32
2023-04-22T22:00:15.628Z,58.63
2023-04-22T22:03:24.012Z,58.36
2023-04-22T22:06:33.304Z,58.64
2023-04-22T22:09:43.982Z,57.97
2023-04-22T22:12:52.857Z,57.65
2023-04-22T22:16:02.484Z,57.70
2023-04-22T22:19:11.382Z,58.77
2023-04-22T22:22:19.554Z,58.62
2023-04-22T22:25:27.649Z,58.99
2023-04-22T22:28:36.052Z,58.54
2023-04-22T22:31:47.297Z,58.56
2023-04-22T22:34:55.513Z,59.04
2023-04-22T22:38:03.657Z,58.61
2023-04-22T22:41:12.239Z,58.94
2023-04-22T22:44:20.473Z,58.49
2023-04-22T22:47:30.925Z,58.60
2023-04-22T22:50:39.858Z,58.29
2023-04-22T22:53:48.109Z,58.11
2023-04-22T22:56:57.795Z,58.23
2023-04-22T23:00:10.302Z,58.69
2023-04-22T23:03:20.384Z,58.49
2023-04-22T23:06:28.636Z,59.97
2023-04-22T23:09:36.742Z,58.95
2023-04-22T23:12:44.853Z,59.36
2023-04-22T23:15:53.001Z,59.11
2023-04-22T23:19:04.272Z,58.97
2023-04-22T23:22:13.124Z,59.19
2023-04-22T23:25:21.863Z,59.57
2023-04-22T23:28:30.871Z,59.77
2023-04-22T23:31:42.695Z,59.98
2023-04-22T23:34:55.387Z,59.41
2023-04-22T23:38:06.705Z,60.64
2023-04-22T23:41:14.917Z,60.17
2023-04-22T23:44:23.459Z,59.47
2023-04-22T23:47:32.081Z,59.95
2023-04-22T23:50:41.742Z,60.30
2023-04-22T23:53:49.967Z,61.22
2023-04-22T23:56:58.987Z,60.93
